sensor_id;sensor_type;location;lat;lon;timestamp;P1;durP1;ratioP1;P2;durP2;ratioP2
3311;SDS011;1668;49.648;8.570;2023-08-08T00:01:55;3.80;;;2.70;;
3311;SDS011;1668;49.648;8.570;2023-08-08T00:04:22;5.73;;;2.63;;
3311;SDS011;1668;49.648;8.570;2023-08-08T00:06:49;3.03;;;2.30;;
3311;SDS011;1668;49.648;8.570;2023-08-08T00:09:16;6.53;;;2.37;;
3311;SDS011;1668;49.648;8.570;2023-08-08T00:11:43;3.07;;;2.43;;
3311;SDS011;1668;49.648;8.570;2023-08-08T00:14:11;6.90;;;2.30;;
3311;SDS011;1668;49.648;8.570;2023-08-08T00:16:38;4.67;;;2.73;;
3311;SDS011;1668;49.648;8.570;2023-08-08T00:19:04;5.37;;;2.60;;
3311;SDS011;1668;49.648;8.570;2023-08-08T00:21:31;3.47;;;2.53;;
3311;SDS011;1668;49.648;8.570;2023-08-08T00:23:58;4.00;;;2.77;;
3311;SDS011;1668;49.648;8.570;2023-08-08T00:26:25;5.30;;;2.83;;
3311;SDS011;1668;49.648;8.570;2023-08-08T00:28:52;4.37;;;2.80;;
3311;SDS011;1668;49.648;8.570;2023-08-08T00:31:20;4.37;;;2.50;;
3311;SDS011;1668;49.648;8.570;2023-08-08T00:33:47;5.90;;;3.20;;
3311;SDS011;1668;49.648;8.570;2023-08-08T00:36:14;4.37;;;2.57;;
3311;SDS011;1668;49.648;8.570;2023-08-08T00:38:41;6.20;;;2.77;;
3311;SDS011;1668;49.648;8.570;2023-08-08T00:41:07;4.10;;;2.70;;
3311;SDS011;1668;49.648;8.570;2023-08-08T00:43:34;4.23;;;2.60;;
3311;SDS011;1668;49.648;8.570;2023-08-08T00:46:01;9.30;;;2.77;;
3311;SDS011;1668;49.648;8.570;2023-08-08T00:48:30;6.00;;;2.40;;
3311;SDS011;1668;49.648;8.570;2023-08-08T00:50:58;7.90;;;3.13;;
3311;SDS011;1668;49.648;8.570;2023-08-08T00:53:25;3.67;;;2.30;;
3311;SDS011;1668;49.648;8.570;2023-08-08T00:55:56;4.67;;;2.50;;
3311;SDS011;1668;49.648;8.570;2023-08-08T00:58:24;3.33;;;2.20;;
3311;SDS011;1668;49.648;8.570;2023-08-08T01:00:51;4.80;;;2.60;;
3311;SDS011;1668;49.648;8.570;2023-08-08T01:03:19;4.70;;;2.73;;
3311;SDS011;1668;49.648;8.570;2023-08-08T01:05:51;4.33;;;2.20;;
3311;SDS011;1668;49.648;8.570;2023-08-08T01:08:26;4.73;;;2.60;;
3311;SDS011;1668;49.648;8.570;2023-08-08T01:10:59;5.63;;;2.90;;
3311;SDS011;1668;49.648;8.570;2023-08-08T01:13:27;7.33;;;3.00;;
3311;SDS011;1668;49.648;8.570;2023-08-08T01:15:56;4.07;;;2.97;;
3311;SDS011;1668;49.648;8.570;2023-08-08T01:18:24;4.70;;;2.87;;
3311;SDS011;1668;49.648;8.570;2023-08-08T01:20:53;5.70;;;2.87;;
3311;SDS011;1668;49.648;8.570;2023-08-08T01:23:23;3.90;;;2.67;;
3311;SDS011;1668;49.648;8.570;2023-08-08T01:25:56;3.17;;;2.50;;
3311;SDS011;1668;49.648;8.570;2023-08-08T01:28:24;4.93;;;2.70;;
3311;SDS011;1668;49.648;8.570;2023-08-08T01:30:51;5.80;;;2.60;;
3311;SDS011;1668;49.648;8.570;2023-08-08T01:33:19;3.83;;;2.60;;
3311;SDS011;1668;49.648;8.570;2023-08-08T01:35:46;5.80;;;2.67;;
3311;SDS011;1668;49.648;8.570;2023-08-08T01:38:17;8.73;;;2.90;;
3311;SDS011;1668;49.648;8.570;2023-08-08T01:40:46;4.90;;;2.70;;
3311;SDS011;1668;49.648;8.570;2023-08-08T01:43:15;5.37;;;3.33;;
3311;SDS011;1668;49.648;8.570;2023-08-08T01:45:43;4.10;;;2.43;;
3311;SDS011;1668;49.648;8.570;2023-08-08T01:48:10;6.67;;;2.37;;
3311;SDS011;1668;49.648;8.570;2023-08-08T01:50:37;3.93;;;2.40;;
3311;SDS011;1668;49.648;8.570;2023-08-08T01:53:05;4.17;;;2.40;;
3311;SDS011;1668;49.648;8.570;2023-08-08T01:55:31;4.50;;;2.30;;
3311;SDS011;1668;49.648;8.570;2023-08-08T01:57:58;8.43;;;2.60;;
3311;SDS011;1668;49.648;8.570;2023-08-08T02:00:26;6.87;;;2.80;;
3311;SDS011;1668;49.648;8.570;2023-08-08T02:02:53;3.27;;;2.40;;
3311;SDS011;1668;49.648;8.570;2023-08-08T02:05:20;3.00;;;2.27;;
3311;SDS011;1668;49.648;8.570;2023-08-08T02:07:47;4.20;;;2.80;;
3311;SDS011;1668;49.648;8.570;2023-08-08T02:10:14;5.03;;;2.50;;
3311;SDS011;1668;49.648;8.570;2023-08-08T02:12:41;3.50;;;2.23;;
3311;SDS011;1668;49.648;8.570;2023-08-08T02:15:08;2.43;;;2.13;;
3311;SDS011;1668;49.648;8.570;2023-08-08T02:17:37;3.57;;;2.40;;
3311;SDS011;1668;49.648;8.570;2023-08-08T02:20:05;3.10;;;2.57;;
3311;SDS011;1668;49.648;8.570;2023-08-08T02:22:33;5.80;;;2.63;;
3311;SDS011;1668;49.648;8.570;2023-08-08T02:25:00;3.40;;;2.20;;
3311;SDS011;1668;49.648;8.570;2023-08-08T02:27:27;4.03;;;2.63;;
3311;SDS011;1668;49.648;8.570;2023-08-08T02:29:54;3.60;;;2.30;;
3311;SDS011;1668;49.648;8.570;2023-08-08T02:32:22;4.33;;;2.43;;
3311;SDS011;1668;49.648;8.570;2023-08-08T02:34:50;5.43;;;2.97;;
3311;SDS011;1668;49.648;8.570;2023-08-08T02:37:17;3.97;;;2.60;;
3311;SDS011;1668;49.648;8.570;2023-08-08T02:39:44;3.90;;;2.67;;
3311;SDS011;1668;49.648;8.570;2023-08-08T02:42:11;3.07;;;2.10;;
3311;SDS011;1668;49.648;8.570;2023-08-08T02:44:38;3.47;;;2.40;;
3311;SDS011;1668;49.648;8.570;2023-08-08T02:47:05;5.27;;;2.13;;
3311;SDS011;1668;49.648;8.570;2023-08-08T02:49:32;4.20;;;2.23;;
3311;SDS011;1668;49.648;8.570;2023-08-08T02:52:00;7.90;;;2.67;;
3311;SDS011;1668;49.648;8.570;2023-08-08T02:54:27;3.97;;;2.50;;
3311;SDS011;1668;49.648;8.570;2023-08-08T02:56:54;4.00;;;2.70;;
3311;SDS011;1668;49.648;8.570;2023-08-08T02:59:21;5.07;;;2.90;;
3311;SDS011;1668;49.648;8.570;2023-08-08T03:01:48;3.63;;;2.50;;
3311;SDS011;1668;49.648;8.570;2023-08-08T03:04:15;6.87;;;3.40;;
3311;SDS011;1668;49.648;8.570;2023-08-08T03:06:42;4.40;;;2.37;;
3311;SDS011;1668;49.648;8.570;2023-08-08T03:09:10;5.77;;;2.80;;
3311;SDS011;1668;49.648;8.570;2023-08-08T03:11:37;4.70;;;2.73;;
3311;SDS011;1668;49.648;8.570;2023-08-08T03:14:06;6.00;;;3.13;;
3311;SDS011;1668;49.648;8.570;2023-08-08T03:16:33;6.23;;;3.13;;
3311;SDS011;1668;49.648;8.570;2023-08-08T03:19:00;4.00;;;2.70;;
3311;SDS011;1668;49.648;8.570;2023-08-08T03:21:27;4.00;;;2.53;;
3311;SDS011;1668;49.648;8.570;2023-08-08T03:23:54;4.47;;;2.60;;
3311;SDS011;1668;49.648;8.570;2023-08-08T03:26:22;4.00;;;2.57;;
3311;SDS011;1668;49.648;8.570;2023-08-08T03:28:49;5.17;;;2.70;;
3311;SDS011;1668;49.648;8.570;2023-08-08T03:31:18;6.40;;;2.70;;
3311;SDS011;1668;49.648;8.570;2023-08-08T03:33:45;6.83;;;2.67;;
3311;SDS011;1668;49.648;8.570;2023-08-08T03:36:12;5.60;;;2.87;;
3311;SDS011;1668;49.648;8.570;2023-08-08T03:38:39;7.20;;;3.00;;
3311;SDS011;1668;49.648;8.570;2023-08-08T03:41:09;5.87;;;2.80;;
3311;SDS011;1668;49.648;8.570;2023-08-08T03:43:37;8.73;;;3.07;;
3311;SDS011;1668;49.648;8.570;2023-08-08T03:46:04;5.00;;;2.97;;
3311;SDS011;1668;49.648;8.570;2023-08-08T03:48:31;5.73;;;2.80;;
3311;SDS011;1668;49.648;8.570;2023-08-08T03:50:58;6.20;;;3.17;;
3311;SDS011;1668;49.648;8.570;2023-08-08T03:53:25;8.60;;;2.97;;
3311;SDS011;1668;49.648;8.570;2023-08-08T03:55:52;10.40;;;2.97;;
3311;SDS011;1668;49.648;8.570;2023-08-08T03:58:18;9.20;;;3.83;;
3311;SDS011;1668;49.648;8.570;2023-08-08T04:00:47;6.30;;;2.97;;
3311;SDS011;1668;49.648;8.570;2023-08-08T04:03:14;5.53;;;2.90;;
3311;SDS011;1668;49.648;8.570;2023-08-08T04:05:43;6.40;;;3.10;;
3311;SDS011;1668;49.648;8.570;2023-08-08T04:08:11;8.27;;;2.93;;
3311;SDS011;1668;49.648;8.570;2023-08-08T04:10:38;6.10;;;2.90;;
3311;SDS011;1668;49.648;8.570;2023-08-08T04:13:05;5.87;;;2.80;;
3311;SDS011;1668;49.648;8.570;2023-08-08T04:15:32;6.63;;;3.00;;
3311;SDS011;1668;49.648;8.570;2023-08-08T04:18:00;6.30;;;2.90;;
3311;SDS011;1668;49.648;8.570;2023-08-08T04:20:27;6.10;;;3.20;;
3311;SDS011;1668;49.648;8.570;2023-08-08T04:22:54;7.50;;;3.00;;
3311;SDS011;1668;49.648;8.570;2023-08-08T04:25:21;5.50;;;2.60;;
3311;SDS011;1668;49.648;8.570;2023-08-08T04:27:48;7.00;;;2.70;;
3311;SDS011;1668;49.648;8.570;2023-08-08T04:30:15;7.63;;;3.03;;
3311;SDS011;1668;49.648;8.570;2023-08-08T04:32:42;8.70;;;3.47;;
3311;SDS011;1668;49.648;8.570;2023-08-08T04:35:10;6.77;;;2.60;;
3311;SDS011;1668;49.648;8.570;2023-08-08T04:37:37;4.00;;;2.27;;
3311;SDS011;1668;49.648;8.570;2023-08-08T04:40:04;7.00;;;2.80;;
3311;SDS011;1668;49.648;8.570;2023-08-08T04:42:33;5.13;;;2.70;;
3311;SDS011;1668;49.648;8.570;2023-08-08T04:45:00;5.63;;;2.83;;
3311;SDS011;1668;49.648;8.570;2023-08-08T04:47:27;5.10;;;2.73;;
3311;SDS011;1668;49.648;8.570;2023-08-08T04:49:54;4.50;;;2.60;;
3311;SDS011;1668;49.648;8.570;2023-08-08T04:52:22;4.53;;;2.67;;
3311;SDS011;1668;49.648;8.570;2023-08-08T04:54:49;4.30;;;3.00;;
3311;SDS011;1668;49.648;8.570;2023-08-08T04:57:16;7.60;;;2.50;;
3311;SDS011;1668;49.648;8.570;2023-08-08T04:59:43;9.03;;;2.80;;
3311;SDS011;1668;49.648;8.570;2023-08-08T05:02:10;5.50;;;2.80;;
3311;SDS011;1668;49.648;8.570;2023-08-08T05:04:36;5.67;;;2.40;;
3311;SDS011;1668;49.648;8.570;2023-08-08T05:07:04;5.57;;;2.40;;
3311;SDS011;1668;49.648;8.570;2023-08-08T05:09:32;4.87;;;2.50;;
3311;SDS011;1668;49.648;8.570;2023-08-08T05:11:59;6.73;;;3.03;;
3311;SDS011;1668;49.648;8.570;2023-08-08T05:14:26;4.63;;;2.47;;
3311;SDS011;1668;49.648;8.570;2023-08-08T05:16:53;8.00;;;3.20;;
3311;SDS011;1668;49.648;8.570;2023-08-08T05:19:19;8.03;;;3.63;;
3311;SDS011;1668;49.648;8.570;2023-08-08T05:21:46;7.27;;;3.23;;
3311;SDS011;1668;49.648;8.570;2023-08-08T05:24:13;5.30;;;2.63;;
3311;SDS011;1668;49.648;8.570;2023-08-08T05:26:41;4.93;;;2.60;;
3311;SDS011;1668;49.648;8.570;2023-08-08T05:29:08;5.80;;;3.13;;
3311;SDS011;1668;49.648;8.570;2023-08-08T05:31:35;13.07;;;3.40;;
3311;SDS011;1668;49.648;8.570;2023-08-08T05:34:02;7.43;;;2.93;;
3311;SDS011;1668;49.648;8.570;2023-08-08T05:36:29;5.47;;;2.80;;
3311;SDS011;1668;49.648;8.570;2023-08-08T05:38:55;9.63;;;3.10;;
3311;SDS011;1668;49.648;8.570;2023-08-08T05:41:22;5.47;;;2.80;;
3311;SDS011;1668;49.648;8.570;2023-08-08T05:43:51;8.93;;;3.63;;
3311;SDS011;1668;49.648;8.570;2023-08-08T05:46:17;6.10;;;3.07;;
3311;SDS011;1668;49.648;8.570;2023-08-08T05:48:44;8.30;;;3.00;;
3311;SDS011;1668;49.648;8.570;2023-08-08T05:51:12;7.10;;;3.50;;
3311;SDS011;1668;49.648;8.570;2023-08-08T05:53:39;6.57;;;3.17;;
3311;SDS011;1668;49.648;8.570;2023-08-08T05:56:05;9.87;;;2.93;;
3311;SDS011;1668;49.648;8.570;2023-08-08T05:58:34;4.80;;;2.87;;
3311;SDS011;1668;49.648;8.570;2023-08-08T06:01:03;4.20;;;2.80;;
3311;SDS011;1668;49.648;8.570;2023-08-08T06:03:34;8.63;;;3.17;;
3311;SDS011;1668;49.648;8.570;2023-08-08T06:06:02;6.40;;;3.10;;
3311;SDS011;1668;49.648;8.570;2023-08-08T06:08:29;8.13;;;2.90;;
3311;SDS011;1668;49.648;8.570;2023-08-08T06:10:56;8.23;;;2.60;;
3311;SDS011;1668;49.648;8.570;2023-08-08T06:13:23;7.00;;;3.20;;
3311;SDS011;1668;49.648;8.570;2023-08-08T06:15:50;6.03;;;3.60;;
3311;SDS011;1668;49.648;8.570;2023-08-08T06:18:18;7.83;;;3.40;;
3311;SDS011;1668;49.648;8.570;2023-08-08T06:20:45;7.13;;;3.60;;
3311;SDS011;1668;49.648;8.570;2023-08-08T06:23:12;6.27;;;3.33;;
3311;SDS011;1668;49.648;8.570;2023-08-08T06:25:40;5.57;;;3.43;;
3311;SDS011;1668;49.648;8.570;2023-08-08T06:28:07;5.50;;;3.10;;
3311;SDS011;1668;49.648;8.570;2023-08-08T06:30:34;6.73;;;3.37;;
3311;SDS011;1668;49.648;8.570;2023-08-08T06:33:01;5.00;;;3.10;;
3311;SDS011;1668;49.648;8.570;2023-08-08T06:35:29;8.40;;;3.10;;
3311;SDS011;1668;49.648;8.570;2023-08-08T06:37:56;6.10;;;3.43;;
3311;SDS011;1668;49.648;8.570;2023-08-08T06:40:23;4.93;;;3.07;;
3311;SDS011;1668;49.648;8.570;2023-08-08T06:42:50;7.23;;;3.33;;
3311;SDS011;1668;49.648;8.570;2023-08-08T06:45:17;6.17;;;3.10;;
3311;SDS011;1668;49.648;8.570;2023-08-08T06:47:44;5.93;;;3.17;;
3311;SDS011;1668;49.648;8.570;2023-08-08T06:50:11;7.20;;;3.20;;
3311;SDS011;1668;49.648;8.570;2023-08-08T06:52:39;5.57;;;2.87;;
3311;SDS011;1668;49.648;8.570;2023-08-08T06:55:06;5.87;;;2.87;;
3311;SDS011;1668;49.648;8.570;2023-08-08T06:57:34;5.47;;;3.13;;
3311;SDS011;1668;49.648;8.570;2023-08-08T07:00:01;5.47;;;3.10;;
3311;SDS011;1668;49.648;8.570;2023-08-08T07:02:30;4.93;;;2.53;;
3311;SDS011;1668;49.648;8.570;2023-08-08T07:04:57;5.20;;;3.10;;
3311;SDS011;1668;49.648;8.570;2023-08-08T07:07:24;6.57;;;2.90;;
3311;SDS011;1668;49.648;8.570;2023-08-08T07:09:53;5.23;;;2.40;;
3311;SDS011;1668;49.648;8.570;2023-08-08T07:12:19;2.93;;;2.03;;
3311;SDS011;1668;49.648;8.570;2023-08-08T07:14:46;7.00;;;2.50;;
3311;SDS011;1668;49.648;8.570;2023-08-08T07:17:13;2.70;;;1.60;;
3311;SDS011;1668;49.648;8.570;2023-08-08T07:19:40;5.13;;;2.50;;
3311;SDS011;1668;49.648;8.570;2023-08-08T07:22:07;6.87;;;1.80;;
3311;SDS011;1668;49.648;8.570;2023-08-08T07:24:34;5.10;;;1.80;;
3311;SDS011;1668;49.648;8.570;2023-08-08T07:27:05;4.80;;;2.07;;
3311;SDS011;1668;49.648;8.570;2023-08-08T07:29:32;4.63;;;2.20;;
3311;SDS011;1668;49.648;8.570;2023-08-08T07:31:59;3.67;;;2.10;;
3311;SDS011;1668;49.648;8.570;2023-08-08T07:34:29;5.30;;;2.30;;
3311;SDS011;1668;49.648;8.570;2023-08-08T07:36:57;5.40;;;2.37;;
3311;SDS011;1668;49.648;8.570;2023-08-08T07:39:24;3.40;;;2.07;;
3311;SDS011;1668;49.648;8.570;2023-08-08T07:41:51;4.33;;;1.53;;
3311;SDS011;1668;49.648;8.570;2023-08-08T07:44:19;1.87;;;1.20;;
3311;SDS011;1668;49.648;8.570;2023-08-08T07:46:46;2.20;;;1.57;;
3311;SDS011;1668;49.648;8.570;2023-08-08T07:49:13;3.40;;;1.67;;
3311;SDS011;1668;49.648;8.570;2023-08-08T07:51:40;3.10;;;1.70;;
3311;SDS011;1668;49.648;8.570;2023-08-08T07:54:07;2.53;;;1.47;;
3311;SDS011;1668;49.648;8.570;2023-08-08T07:56:35;4.03;;;1.60;;
3311;SDS011;1668;49.648;8.570;2023-08-08T07:59:02;4.63;;;1.70;;
3311;SDS011;1668;49.648;8.570;2023-08-08T08:01:31;3.87;;;1.50;;
3311;SDS011;1668;49.648;8.570;2023-08-08T08:03:58;4.50;;;1.87;;
3311;SDS011;1668;49.648;8.570;2023-08-08T08:06:28;2.50;;;1.47;;
3311;SDS011;1668;49.648;8.570;2023-08-08T08:08:55;2.53;;;1.40;;
3311;SDS011;1668;49.648;8.570;2023-08-08T08:11:22;2.50;;;1.50;;
3311;SDS011;1668;49.648;8.570;2023-08-08T08:13:49;3.40;;;1.83;;
3311;SDS011;1668;49.648;8.570;2023-08-08T08:16:16;2.57;;;1.50;;
3311;SDS011;1668;49.648;8.570;2023-08-08T08:18:44;2.20;;;1.30;;
3311;SDS011;1668;49.648;8.570;2023-08-08T08:21:12;3.13;;;1.53;;
3311;SDS011;1668;49.648;8.570;2023-08-08T08:23:42;2.30;;;1.60;;
3311;SDS011;1668;49.648;8.570;2023-08-08T08:26:09;3.80;;;1.50;;
3311;SDS011;1668;49.648;8.570;2023-08-08T08:28:35;6.40;;;1.40;;
3311;SDS011;1668;49.648;8.570;2023-08-08T08:31:03;3.70;;;1.50;;
3311;SDS011;1668;49.648;8.570;2023-08-08T08:33:30;4.10;;;1.53;;
3311;SDS011;1668;49.648;8.570;2023-08-08T08:35:59;4.40;;;1.40;;
3311;SDS011;1668;49.648;8.570;2023-08-08T08:38:26;3.97;;;1.50;;
3311;SDS011;1668;49.648;8.570;2023-08-08T08:40:53;2.77;;;1.33;;
3311;SDS011;1668;49.648;8.570;2023-08-08T08:43:22;2.07;;;1.20;;
3311;SDS011;1668;49.648;8.570;2023-08-08T08:45:49;2.33;;;1.30;;
3311;SDS011;1668;49.648;8.570;2023-08-08T08:48:18;4.20;;;1.40;;
3311;SDS011;1668;49.648;8.570;2023-08-08T08:50:47;3.67;;;1.23;;
3311;SDS011;1668;49.648;8.570;2023-08-08T08:53:16;4.33;;;1.90;;
3311;SDS011;1668;49.648;8.570;2023-08-08T08:55:43;3.13;;;1.30;;
3311;SDS011;1668;49.648;8.570;2023-08-08T08:58:12;2.27;;;1.20;;
3311;SDS011;1668;49.648;8.570;2023-08-08T09:00:41;4.73;;;1.80;;
3311;SDS011;1668;49.648;8.570;2023-08-08T09:03:10;3.13;;;1.53;;
3311;SDS011;1668;49.648;8.570;2023-08-08T09:05:37;3.13;;;1.50;;
3311;SDS011;1668;49.648;8.570;2023-08-08T09:08:06;2.23;;;1.10;;
3311;SDS011;1668;49.648;8.570;2023-08-08T09:10:35;6.30;;;1.33;;
3311;SDS011;1668;49.648;8.570;2023-08-08T09:13:02;4.30;;;1.50;;
3311;SDS011;1668;49.648;8.570;2023-08-08T09:15:30;2.20;;;1.20;;
3311;SDS011;1668;49.648;8.570;2023-08-08T09:17:57;2.23;;;1.17;;
3311;SDS011;1668;49.648;8.570;2023-08-08T09:20:25;2.83;;;1.40;;
3311;SDS011;1668;49.648;8.570;2023-08-08T09:22:53;3.93;;;1.50;;
3311;SDS011;1668;49.648;8.570;2023-08-08T09:25:20;2.07;;;1.20;;
3311;SDS011;1668;49.648;8.570;2023-08-08T09:27:50;7.40;;;2.00;;
3311;SDS011;1668;49.648;8.570;2023-08-08T09:30:17;3.00;;;1.33;;
3311;SDS011;1668;49.648;8.570;2023-08-08T09:32:44;4.13;;;1.40;;
3311;SDS011;1668;49.648;8.570;2023-08-08T09:35:11;7.53;;;1.90;;
3311;SDS011;1668;49.648;8.570;2023-08-08T09:37:38;4.50;;;1.60;;
3311;SDS011;1668;49.648;8.570;2023-08-08T09:40:05;1.80;;;1.30;;
3311;SDS011;1668;49.648;8.570;2023-08-08T09:42:36;3.50;;;1.40;;
3311;SDS011;1668;49.648;8.570;2023-08-08T09:45:05;5.00;;;1.50;;
3311;SDS011;1668;49.648;8.570;2023-08-08T09:47:34;5.43;;;1.40;;
3311;SDS011;1668;49.648;8.570;2023-08-08T09:50:02;3.90;;;1.50;;
3311;SDS011;1668;49.648;8.570;2023-08-08T09:52:30;5.13;;;1.63;;
3311;SDS011;1668;49.648;8.570;2023-08-08T09:54:59;3.00;;;1.63;;
3311;SDS011;1668;49.648;8.570;2023-08-08T09:57:27;3.53;;;1.50;;
3311;SDS011;1668;49.648;8.570;2023-08-08T09:59:55;3.13;;;1.33;;
3311;SDS011;1668;49.648;8.570;2023-08-08T10:02:23;3.77;;;1.90;;
3311;SDS011;1668;49.648;8.570;2023-08-08T10:04:50;2.80;;;1.50;;
3311;SDS011;1668;49.648;8.570;2023-08-08T10:07:19;2.83;;;1.50;;
3311;SDS011;1668;49.648;8.570;2023-08-08T10:09:46;3.33;;;1.23;;
3311;SDS011;1668;49.648;8.570;2023-08-08T10:12:13;5.33;;;1.60;;
3311;SDS011;1668;49.648;8.570;2023-08-08T10:14:42;4.30;;;1.80;;
3311;SDS011;1668;49.648;8.570;2023-08-08T10:17:12;4.00;;;1.60;;
3311;SDS011;1668;49.648;8.570;2023-08-08T10:19:48;5.33;;;1.80;;
3311;SDS011;1668;49.648;8.570;2023-08-08T10:22:19;2.53;;;1.50;;
3311;SDS011;1668;49.648;8.570;2023-08-08T10:24:47;3.00;;;1.90;;
3311;SDS011;1668;49.648;8.570;2023-08-08T10:27:26;2.20;;;1.40;;
3311;SDS011;1668;49.648;8.570;2023-08-08T10:29:54;1.93;;;1.33;;
3311;SDS011;1668;49.648;8.570;2023-08-08T10:32:26;3.90;;;1.83;;
3311;SDS011;1668;49.648;8.570;2023-08-08T10:34:55;3.17;;;1.50;;
3311;SDS011;1668;49.648;8.570;2023-08-08T10:37:26;4.70;;;1.60;;
3311;SDS011;1668;49.648;8.570;2023-08-08T10:39:53;4.33;;;2.00;;
3311;SDS011;1668;49.648;8.570;2023-08-08T10:42:20;2.70;;;1.37;;
3311;SDS011;1668;49.648;8.570;2023-08-08T10:44:51;5.33;;;1.93;;
3311;SDS011;1668;49.648;8.570;2023-08-08T10:47:21;2.30;;;1.50;;
3311;SDS011;1668;49.648;8.570;2023-08-08T10:49:57;7.97;;;2.00;;
3311;SDS011;1668;49.648;8.570;2023-08-08T10:52:25;3.80;;;2.00;;
3311;SDS011;1668;49.648;8.570;2023-08-08T10:54:52;2.60;;;1.50;;
3311;SDS011;1668;49.648;8.570;2023-08-08T10:57:19;3.67;;;1.40;;
3311;SDS011;1668;49.648;8.570;2023-08-08T10:59:50;4.80;;;1.97;;
3311;SDS011;1668;49.648;8.570;2023-08-08T11:02:18;3.77;;;1.63;;
3311;SDS011;1668;49.648;8.570;2023-08-08T11:04:45;2.47;;;1.50;;
3311;SDS011;1668;49.648;8.570;2023-08-08T11:07:15;3.20;;;1.90;;
3311;SDS011;1668;49.648;8.570;2023-08-08T11:09:42;2.80;;;1.40;;
3311;SDS011;1668;49.648;8.570;2023-08-08T11:12:13;4.00;;;1.70;;
3311;SDS011;1668;49.648;8.570;2023-08-08T11:14:41;3.43;;;2.03;;
3311;SDS011;1668;49.648;8.570;2023-08-08T11:17:08;2.90;;;1.63;;
3311;SDS011;1668;49.648;8.570;2023-08-08T11:19:38;6.13;;;1.67;;
3311;SDS011;1668;49.648;8.570;2023-08-08T11:22:08;2.70;;;1.30;;
3311;SDS011;1668;49.648;8.570;2023-08-08T11:24:37;3.10;;;1.70;;
3311;SDS011;1668;49.648;8.570;2023-08-08T11:27:04;3.30;;;1.43;;
3311;SDS011;1668;49.648;8.570;2023-08-08T11:29:31;2.83;;;1.73;;
3311;SDS011;1668;49.648;8.570;2023-08-08T11:31:59;4.70;;;1.50;;
3311;SDS011;1668;49.648;8.570;2023-08-08T11:34:29;2.40;;;1.60;;
3311;SDS011;1668;49.648;8.570;2023-08-08T11:36:58;3.33;;;1.40;;
3311;SDS011;1668;49.648;8.570;2023-08-08T11:39:27;2.43;;;1.40;;
3311;SDS011;1668;49.648;8.570;2023-08-08T11:41:57;4.03;;;1.60;;
3311;SDS011;1668;49.648;8.570;2023-08-08T11:44:24;2.83;;;1.47;;
3311;SDS011;1668;49.648;8.570;2023-08-08T11:46:51;2.60;;;1.60;;
3311;SDS011;1668;49.648;8.570;2023-08-08T11:49:18;2.20;;;1.50;;
3311;SDS011;1668;49.648;8.570;2023-08-08T11:51:45;2.73;;;1.47;;
3311;SDS011;1668;49.648;8.570;2023-08-08T11:54:12;5.30;;;1.70;;
3311;SDS011;1668;49.648;8.570;2023-08-08T11:56:39;2.60;;;1.57;;
3311;SDS011;1668;49.648;8.570;2023-08-08T11:59:09;4.20;;;1.87;;
3311;SDS011;1668;49.648;8.570;2023-08-08T12:01:37;2.93;;;1.80;;
3311;SDS011;1668;49.648;8.570;2023-08-08T12:04:05;2.37;;;1.70;;
3311;SDS011;1668;49.648;8.570;2023-08-08T12:06:36;3.20;;;1.40;;
3311;SDS011;1668;49.648;8.570;2023-08-08T12:09:04;3.83;;;1.87;;
3311;SDS011;1668;49.648;8.570;2023-08-08T12:11:33;4.30;;;1.63;;
3311;SDS011;1668;49.648;8.570;2023-08-08T12:14:01;1.40;;;1.10;;
3311;SDS011;1668;49.648;8.570;2023-08-08T12:16:29;2.53;;;1.50;;
3311;SDS011;1668;49.648;8.570;2023-08-08T12:18:56;3.83;;;1.70;;
3311;SDS011;1668;49.648;8.570;2023-08-08T12:21:23;2.43;;;1.60;;
3311;SDS011;1668;49.648;8.570;2023-08-08T12:23:50;2.30;;;1.47;;
3311;SDS011;1668;49.648;8.570;2023-08-08T12:26:17;2.80;;;1.53;;
3311;SDS011;1668;49.648;8.570;2023-08-08T12:28:44;5.07;;;1.60;;
3311;SDS011;1668;49.648;8.570;2023-08-08T12:31:11;5.50;;;1.70;;
3311;SDS011;1668;49.648;8.570;2023-08-08T12:33:39;3.80;;;1.60;;
3311;SDS011;1668;49.648;8.570;2023-08-08T12:36:06;3.73;;;1.60;;
3311;SDS011;1668;49.648;8.570;2023-08-08T12:38:33;3.97;;;1.50;;
3311;SDS011;1668;49.648;8.570;2023-08-08T12:41:00;2.37;;;1.30;;
3311;SDS011;1668;49.648;8.570;2023-08-08T12:43:28;2.00;;;1.20;;
3311;SDS011;1668;49.648;8.570;2023-08-08T12:45:55;3.83;;;1.60;;
3311;SDS011;1668;49.648;8.570;2023-08-08T12:48:21;2.40;;;1.70;;
3311;SDS011;1668;49.648;8.570;2023-08-08T12:50:50;2.77;;;1.40;;
3311;SDS011;1668;49.648;8.570;2023-08-08T12:53:16;3.30;;;1.60;;
3311;SDS011;1668;49.648;8.570;2023-08-08T12:55:43;3.20;;;1.50;;
3311;SDS011;1668;49.648;8.570;2023-08-08T12:58:10;2.60;;;1.40;;
3311;SDS011;1668;49.648;8.570;2023-08-08T13:00:37;3.00;;;1.47;;
3311;SDS011;1668;49.648;8.570;2023-08-08T13:03:04;2.80;;;1.60;;
3311;SDS011;1668;49.648;8.570;2023-08-08T13:05:31;5.23;;;1.40;;
3311;SDS011;1668;49.648;8.570;2023-08-08T13:07:59;2.03;;;1.30;;
3311;SDS011;1668;49.648;8.570;2023-08-08T13:10:26;4.47;;;1.57;;
3311;SDS011;1668;49.648;8.570;2023-08-08T13:12:54;3.13;;;1.60;;
3311;SDS011;1668;49.648;8.570;2023-08-08T13:15:21;2.47;;;1.40;;
3311;SDS011;1668;49.648;8.570;2023-08-08T13:17:48;3.40;;;1.40;;
3311;SDS011;1668;49.648;8.570;2023-08-08T13:20:15;3.00;;;1.43;;
3311;SDS011;1668;49.648;8.570;2023-08-08T13:22:42;3.00;;;1.37;;
3311;SDS011;1668;49.648;8.570;2023-08-08T13:25:10;2.20;;;1.40;;
3311;SDS011;1668;49.648;8.570;2023-08-08T13:27:37;2.47;;;1.60;;
3311;SDS011;1668;49.648;8.570;2023-08-08T13:30:04;2.80;;;1.30;;
3311;SDS011;1668;49.648;8.570;2023-08-08T13:32:32;2.97;;;1.47;;
3311;SDS011;1668;49.648;8.570;2023-08-08T13:34:59;4.10;;;1.60;;
3311;SDS011;1668;49.648;8.570;2023-08-08T13:37:26;2.73;;;1.47;;
3311;SDS011;1668;49.648;8.570;2023-08-08T13:39:52;2.70;;;1.17;;
3311;SDS011;1668;49.648;8.570;2023-08-08T13:42:21;3.73;;;1.50;;
3311;SDS011;1668;49.648;8.570;2023-08-08T13:44:47;2.77;;;1.50;;
3311;SDS011;1668;49.648;8.570;2023-08-08T13:47:14;4.20;;;1.40;;
3311;SDS011;1668;49.648;8.570;2023-08-08T13:49:41;4.13;;;1.50;;
3311;SDS011;1668;49.648;8.570;2023-08-08T13:52:08;1.93;;;1.13;;
3311;SDS011;1668;49.648;8.570;2023-08-08T17:57:10;8.60;;;2.00;;
3311;SDS011;1668;49.648;8.570;2023-08-08T17:59:36;4.23;;;2.00;;
3311;SDS011;1668;49.648;8.570;2023-08-08T18:02:03;4.93;;;1.80;;
3311;SDS011;1668;49.648;8.570;2023-08-08T18:04:30;4.60;;;1.77;;
3311;SDS011;1668;49.648;8.570;2023-08-08T18:06:57;5.20;;;1.93;;
3311;SDS011;1668;49.648;8.570;2023-08-08T18:09:24;4.83;;;1.87;;
3311;SDS011;1668;49.648;8.570;2023-08-08T18:11:54;4.73;;;1.93;;
3311;SDS011;1668;49.648;8.570;2023-08-08T18:14:21;4.63;;;1.83;;
3311;SDS011;1668;49.648;8.570;2023-08-08T18:16:48;3.67;;;2.03;;
3311;SDS011;1668;49.648;8.570;2023-08-08T18:19:15;6.03;;;1.70;;
3311;SDS011;1668;49.648;8.570;2023-08-08T18:21:43;3.53;;;2.00;;
3311;SDS011;1668;49.648;8.570;2023-08-08T18:24:11;3.40;;;1.77;;
3311;SDS011;1668;49.648;8.570;2023-08-08T18:26:38;3.33;;;1.97;;
3311;SDS011;1668;49.648;8.570;2023-08-08T18:29:06;6.10;;;1.83;;
3311;SDS011;1668;49.648;8.570;2023-08-08T18:31:33;5.07;;;2.13;;
3311;SDS011;1668;49.648;8.570;2023-08-08T18:33:59;7.57;;;1.70;;
3311;SDS011;1668;49.648;8.570;2023-08-08T18:36:27;6.50;;;1.97;;
3311;SDS011;1668;49.648;8.570;2023-08-08T18:38:55;4.63;;;1.90;;
3311;SDS011;1668;49.648;8.570;2023-08-08T18:41:22;4.07;;;1.80;;
3311;SDS011;1668;49.648;8.570;2023-08-08T18:43:49;4.27;;;2.33;;
3311;SDS011;1668;49.648;8.570;2023-08-08T18:46:17;3.70;;;1.70;;
3311;SDS011;1668;49.648;8.570;2023-08-08T18:48:44;3.00;;;1.60;;
3311;SDS011;1668;49.648;8.570;2023-08-08T18:51:11;4.40;;;2.00;;
3311;SDS011;1668;49.648;8.570;2023-08-08T18:53:38;4.20;;;2.13;;
3311;SDS011;1668;49.648;8.570;2023-08-08T18:56:05;11.00;;;1.90;;
3311;SDS011;1668;49.648;8.570;2023-08-08T18:58:32;3.20;;;1.90;;
3311;SDS011;1668;49.648;8.570;2023-08-08T19:00:59;5.00;;;1.80;;
3311;SDS011;1668;49.648;8.570;2023-08-08T19:03:32;3.60;;;1.53;;
3311;SDS011;1668;49.648;8.570;2023-08-08T19:06:02;4.97;;;3.40;;
3311;SDS011;1668;49.648;8.570;2023-08-08T19:08:30;4.90;;;2.83;;
3311;SDS011;1668;49.648;8.570;2023-08-08T19:10:57;3.23;;;2.13;;
3311;SDS011;1668;49.648;8.570;2023-08-08T19:13:24;2.50;;;2.00;;
3311;SDS011;1668;49.648;8.570;2023-08-08T19:15:51;3.40;;;2.20;;
3311;SDS011;1668;49.648;8.570;2023-08-08T19:18:18;4.53;;;2.13;;
3311;SDS011;1668;49.648;8.570;2023-08-08T19:20:46;2.70;;;1.80;;